createdAt,value
2022-10-26T00:01:13.408Z,4.72
2022-10-26T00:03:41.237Z,4.03
2022-10-26T00:06:18.160Z,4.75
2022-10-26T00:08:44.922Z,5.22
2022-10-26T00:11:12.087Z,4.70
2022-10-26T00:13:39.526Z,5.30
2022-10-26T00:16:10.684Z,2.97
2022-10-26T00:18:37.432Z,2.90
2022-10-26T00:21:05.039Z,5.35
2022-10-26T00:23:32.120Z,5.60
2022-10-26T00:25:58.929Z,4.22
2022-10-26T00:28:25.568Z,7.68
2022-10-26T00:30:52.199Z,5.38
2022-10-26T00:33:19.045Z,4.43
2022-10-26T00:35:53.155Z,3.05
2022-10-26T00:38:20.079Z,2.67
2022-10-26T00:40:47.551Z,2.58
2022-10-26T00:43:40.404Z,6.10
2022-10-26T00:46:10.098Z,7.30
2022-10-26T00:48:38.796Z,4.60
2022-10-26T00:51:28.283Z,3.13
2022-10-26T00:53:55.010Z,3.15
2022-10-26T00:56:21.616Z,4.78
2022-10-26T00:58:48.261Z,5.80
2022-10-26T01:01:14.919Z,4.80
2022-10-26T01:03:41.607Z,5.38
2022-10-26T01:06:08.514Z,3.05
2022-10-26T01:08:35.077Z,7.63
2022-10-26T01:11:02.136Z,3.30
2022-10-26T01:13:29.722Z,5.90
2022-10-26T01:16:08.873Z,2.90
2022-10-26T01:19:17.193Z,5.78
2022-10-26T01:22:12.975Z,5.63
2022-10-26T01:24:59.113Z,3.67
2022-10-26T01:27:31.266Z,3.22
2022-10-26T01:30:19.755Z,4.00
2022-10-26T01:33:01.561Z,5.93
2022-10-26T01:36:06.175Z,5.00
2022-10-26T01:39:08.220Z,8.95
2022-10-26T01:41:37.763Z,4.28
2022-10-26T01:44:05.214Z,6.55
2022-10-26T01:46:35.847Z,4.40
2022-10-26T01:49:06.278Z,3.53
2022-10-26T01:51:32.907Z,2.90
2022-10-26T01:53:59.714Z,4.07
2022-10-26T01:56:27.781Z,5.28
2022-10-26T01:59:13.370Z,3.40
2022-10-26T02:01:49.359Z,5.43
2022-10-26T02:04:34.166Z,6.45
2022-10-26T02:07:10.222Z,4.90
2022-10-26T02:09:57.490Z,5.78
2022-10-26T02:12:46.257Z,5.35
2022-10-26T02:15:20.676Z,5.85
2022-10-26T02:18:10.351Z,4.68
2022-10-26T02:20:40.783Z,5.35
2022-10-26T02:23:07.389Z,10.43
2022-10-26T02:25:35.996Z,4.45
2022-10-26T02:28:14.076Z,5.15
2022-10-26T02:30:40.741Z,6.75
2022-10-26T02:33:07.364Z,3.33
2022-10-26T02:35:35.476Z,4.78
2022-10-26T02:38:03.339Z,6.05
2022-10-26T02:40:30.065Z,5.55
2022-10-26T02:42:58.903Z,5.20
2022-10-26T02:45:28.018Z,9.32
2022-10-26T02:47:54.753Z,6.18
2022-10-26T02:50:22.956Z,3.92
2022-10-26T02:53:11.307Z,6.28
2022-10-26T02:55:40.918Z,7.57
2022-10-26T02:58:11.489Z,6.95
2022-10-26T03:00:38.112Z,5.43
2022-10-26T03:03:04.700Z,8.93
2022-10-26T03:05:32.770Z,8.32
2022-10-26T03:08:00.390Z,6.00
2022-10-26T03:10:27.262Z,3.75
2022-10-26T03:12:53.942Z,5.57
2022-10-26T03:15:20.760Z,4.60
2022-10-26T03:17:47.527Z,4.22
2022-10-26T03:20:14.473Z,4.72
2022-10-26T03:22:41.078Z,6.25
2022-10-26T03:27:35.642Z,6.30
2022-10-26T03:30:02.253Z,6.50
2022-10-26T03:32:28.873Z,6.03
2022-10-26T03:34:55.462Z,6.82
2022-10-26T03:37:21.994Z,7.22
2022-10-26T03:39:48.569Z,6.30
2022-10-26T03:42:15.124Z,5.35
2022-10-26T03:44:41.768Z,5.75
2022-10-26T03:47:08.323Z,5.68
2022-10-26T03:49:36.072Z,6.97
2022-10-26T03:52:03.106Z,6.22
2022-10-26T03:54:29.703Z,4.32
2022-10-26T03:56:56.248Z,7.20
2022-10-26T03:59:22.827Z,6.47
2022-10-26T04:01:52.757Z,9.20
2022-10-26T04:04:22.101Z,6.88
2022-10-26T04:06:48.787Z,5.35
2022-10-26T04:09:15.371Z,8.50
2022-10-26T04:11:41.920Z,4.93
2022-10-26T04:14:08.514Z,6.57
2022-10-26T04:16:35.081Z,6.70
2022-10-26T04:19:01.665Z,4.97
2022-10-26T04:21:28.264Z,7.88
2022-10-26T04:23:54.831Z,5.05
2022-10-26T04:26:21.412Z,5.93
2022-10-26T04:28:47.990Z,6.85
2022-10-26T04:31:14.574Z,4.80
2022-10-26T04:33:41.105Z,5.90
2022-10-26T04:36:08.256Z,6.30
2022-10-26T04:38:34.829Z,4.15
2022-10-26T04:41:01.441Z,3.80
2022-10-26T04:43:27.989Z,5.40
2022-10-26T04:45:58.142Z,5.93
2022-10-26T04:50:59.830Z,6.75
2022-10-26T04:53:26.735Z,9.95
2022-10-26T04:56:00.537Z,8.10
2022-10-26T04:58:28.328Z,5.97
2022-10-26T05:00:55.130Z,4.95
2022-10-26T05:03:21.987Z,5.32
2022-10-26T05:05:48.660Z,5.00
2022-10-26T05:08:15.922Z,2.67
2022-10-26T05:10:42.835Z,5.35
2022-10-26T05:13:09.921Z,5.60
2022-10-26T05:15:36.511Z,3.30
2022-10-26T05:18:05.578Z,5.53
2022-10-26T05:20:33.762Z,6.65
2022-10-26T05:23:02.207Z,5.38
2022-10-26T05:25:30.209Z,3.75
2022-10-26T05:28:00.560Z,5.05
2022-10-26T05:30:27.899Z,4.32
2022-10-26T05:32:55.674Z,4.32
2022-10-26T05:35:22.641Z,5.97
2022-10-26T05:37:49.182Z,5.50
2022-10-26T05:40:17.178Z,5.55
2022-10-26T05:42:44.640Z,5.43
2022-10-26T05:45:12.049Z,4.05
2022-10-26T05:47:42.235Z,6.00
2022-10-26T05:50:09.405Z,6.15
2022-10-26T05:52:42.780Z,3.40
2022-10-26T05:55:10.624Z,5.47
2022-10-26T05:57:37.587Z,3.90
2022-10-26T06:00:12.613Z,4.72
2022-10-26T06:02:51.686Z,7.53
2022-10-26T06:05:21.645Z,6.80
2022-10-26T06:07:50.060Z,5.22
2022-10-26T06:10:17.225Z,4.60
2022-10-26T06:12:43.964Z,6.20
2022-10-26T06:15:15.033Z,5.70
2022-10-26T06:17:59.857Z,3.33
2022-10-26T06:20:32.445Z,2.42
2022-10-26T06:23:14.239Z,3.15
2022-10-26T06:25:47.262Z,3.90
2022-10-26T06:30:49.422Z,6.43
2022-10-26T06:33:28.817Z,3.28
2022-10-26T06:36:15.350Z,5.65
2022-10-26T06:38:44.432Z,4.28
2022-10-26T06:41:14.874Z,7.45
2022-10-26T06:43:41.686Z,6.60
2022-10-26T06:46:15.111Z,4.68
2022-10-26T06:48:52.164Z,3.40
2022-10-26T06:51:18.776Z,3.47
2022-10-26T06:54:05.320Z,5.22
2022-10-26T06:56:31.864Z,5.20
2022-10-26T06:59:06.277Z,4.70
2022-10-26T07:01:33.759Z,5.85
2022-10-26T07:04:00.373Z,4.20
2022-10-26T07:06:26.901Z,10.13
2022-10-26T07:08:53.459Z,4.65
2022-10-26T07:11:20.278Z,4.13
2022-10-26T07:13:46.844Z,5.72
2022-10-26T07:16:13.399Z,5.20
2022-10-26T07:18:39.993Z,4.18
2022-10-26T07:21:06.539Z,4.57
2022-10-26T07:23:33.110Z,9.10
2022-10-26T07:26:00.494Z,5.38
2022-10-26T07:28:27.064Z,5.65
2022-10-26T07:30:56.179Z,3.75
2022-10-26T07:33:22.899Z,6.38
2022-10-26T07:35:49.497Z,6.55
2022-10-26T07:38:16.087Z,6.35
2022-10-26T07:40:42.639Z,4.93
2022-10-26T07:43:09.225Z,6.18
2022-10-26T07:45:36.808Z,4.45
2022-10-26T07:48:03.458Z,3.55
2022-10-26T07:50:30.038Z,3.17
2022-10-26T07:52:58.734Z,7.28
2022-10-26T07:55:25.390Z,5.35
2022-10-26T07:57:54.749Z,3.25
2022-10-26T08:00:22.155Z,4.70
2022-10-26T08:02:48.825Z,6.47
2022-10-26T08:05:15.426Z,3.78
2022-10-26T08:07:43.780Z,6.72
2022-10-26T08:10:11.024Z,3.88
2022-10-26T08:12:37.682Z,4.53
2022-10-26T08:15:04.678Z,4.03
2022-10-26T08:17:31.291Z,5.85
2022-10-26T08:19:57.885Z,6.95
2022-10-26T08:22:24.553Z,6.45
2022-10-26T08:24:51.138Z,6.72
2022-10-26T08:27:17.687Z,8.63
2022-10-26T08:29:44.244Z,4.72
2022-10-26T08:32:10.784Z,6.43
2022-10-26T08:34:37.347Z,5.05
2022-10-26T08:37:03.947Z,2.55
2022-10-26T08:39:31.047Z,4.80
2022-10-26T08:42:19.703Z,4.38
2022-10-26T08:44:47.773Z,5.93
2022-10-26T08:47:39.969Z,7.07
2022-10-26T08:50:08.116Z,7.70
2022-10-26T08:53:02.214Z,4.05
2022-10-26T08:55:49.836Z,7.18
2022-10-26T08:58:17.914Z,4.55
2022-10-26T09:00:44.836Z,3.92
2022-10-26T09:03:15.297Z,4.00
2022-10-26T09:06:19.415Z,5.25
2022-10-26T09:08:49.001Z,5.05
2022-10-26T09:11:40.400Z,3.95
2022-10-26T09:14:19.547Z,5.32
2022-10-26T09:17:08.463Z,3.65
2022-10-26T09:19:50.592Z,3.88
2022-10-26T09:22:43.211Z,7.70
2022-10-26T09:25:21.361Z,6.70
2022-10-26T09:27:58.775Z,3.33
2022-10-26T09:30:25.332Z,5.20
2022-10-26T09:32:58.070Z,8.95
2022-10-26T09:35:52.183Z,4.18
2022-10-26T09:38:37.029Z,7.22
2022-10-26T09:41:51.177Z,6.30
2022-10-26T09:44:36.990Z,5.60
2022-10-26T09:47:06.986Z,5.75
2022-10-26T09:49:41.353Z,4.57
2022-10-26T09:52:08.024Z,4.93
2022-10-26T09:54:34.908Z,3.45
2022-10-26T09:57:02.260Z,3.42
2022-10-26T09:59:28.878Z,8.45
2022-10-26T10:01:55.454Z,6.00
2022-10-26T10:04:23.064Z,3.88
2022-10-26T10:06:51.448Z,8.40
2022-10-26T10:09:22.340Z,6.47
2022-10-26T10:11:57.920Z,6.28
2022-10-26T10:14:28.931Z,5.10
2022-10-26T10:17:00.104Z,7.57
2022-10-26T10:19:34.401Z,4.38
2022-10-26T10:22:02.768Z,6.40
2022-10-26T10:24:33.694Z,17.85
2022-10-26T10:27:05.609Z,5.60
2022-10-26T10:29:42.701Z,6.07
2022-10-26T10:32:20.748Z,6.15
2022-10-26T10:34:51.514Z,6.22
2022-10-26T10:37:30.426Z,4.95
2022-10-26T10:40:04.108Z,3.53
2022-10-26T10:42:31.929Z,4.03
2022-10-26T10:44:58.650Z,6.38
2022-10-26T10:47:36.150Z,6.25
2022-10-26T10:50:04.460Z,4.05
2022-10-26T10:52:32.726Z,7.50
2022-10-26T10:55:14.451Z,6.78
2022-10-26T10:57:56.644Z,6.10
2022-10-26T11:00:24.273Z,5.78
2022-10-26T11:03:00.963Z,7.70
2022-10-26T11:05:31.169Z,8.57
2022-10-26T11:08:04.569Z,3.92
2022-10-26T11:10:34.924Z,8.93
2022-10-26T11:13:04.649Z,4.43
2022-10-26T11:15:33.043Z,8.30
2022-10-26T11:18:19.611Z,5.55
2022-10-26T11:23:32.857Z,8.43
2022-10-26T11:26:03.871Z,7.28
2022-10-26T11:28:54.956Z,6.38
2022-10-26T11:31:25.317Z,6.00
2022-10-26T11:34:10.602Z,6.07
2022-10-26T11:36:37.191Z,6.47
2022-10-26T11:39:14.878Z,4.78
2022-10-26T11:41:46.015Z,4.63
2022-10-26T11:44:20.638Z,4.15
2022-10-26T11:46:53.072Z,5.10
2022-10-26T11:49:21.525Z,8.20
2022-10-26T11:52:11.454Z,6.45
2022-10-26T11:54:41.127Z,5.90
2022-10-26T11:57:07.754Z,4.10
2022-10-26T11:59:37.936Z,4.68
2022-10-26T12:02:24.465Z,3.72
2022-10-26T12:05:07.087Z,7.88
2022-10-26T12:07:36.497Z,4.20
2022-10-26T12:10:03.992Z,7.47
2022-10-26T12:12:51.593Z,6.32
2022-10-26T12:16:03.623Z,6.95
2022-10-26T12:19:01.019Z,6.65
2022-10-26T12:21:28.988Z,6.25
2022-10-26T12:23:58.631Z,4.35
2022-10-26T12:26:27.892Z,3.47
2022-10-26T12:29:03.587Z,4.88
2022-10-26T12:31:33.416Z,7.53
2022-10-26T12:34:00.508Z,5.10
2022-10-26T12:36:49.531Z,4.32
2022-10-26T12:39:36.323Z,3.40
2022-10-26T12:42:06.009Z,2.78
2022-10-26T12:45:02.191Z,3.97
2022-10-26T12:47:28.666Z,6.00
2022-10-26T12:50:07.270Z,2.42
2022-10-26T12:52:39.679Z,4.65
2022-10-26T12:55:12.056Z,2.83
2022-10-26T12:58:06.222Z,3.67
2022-10-26T13:00:33.050Z,6.75
2022-10-26T13:03:29.369Z,5.15
2022-10-26T13:06:01.873Z,2.38
2022-10-26T13:08:28.581Z,4.75
2022-10-26T13:11:02.688Z,4.30
2022-10-26T13:13:29.581Z,3.95
2022-10-26T13:15:56.481Z,5.35
2022-10-26T13:18:23.039Z,6.15
2022-10-26T13:21:08.364Z,5.72
2022-10-26T13:23:37.794Z,7.63
2022-10-26T13:26:13.602Z,5.53
2022-10-26T13:28:40.101Z,5.05
2022-10-26T13:31:34.577Z,3.83
2022-10-26T13:34:12.881Z,4.85
2022-10-26T13:36:41.770Z,7.15
2022-10-26T13:39:29.543Z,8.50
2022-10-26T13:41:56.173Z,3.25
2022-10-26T13:44:28.604Z,3.95
2022-10-26T13:46:58.698Z,4.72
2022-10-26T13:49:29.277Z,5.88
2022-10-26T13:51:55.888Z,5.10
2022-10-26T13:54:30.438Z,5.28
2022-10-26T13:57:23.233Z,3.45
2022-10-26T13:59:49.869Z,7.68
2022-10-26T14:02:26.601Z,6.25
2022-10-26T14:04:59.132Z,4.47
2022-10-26T14:07:35.894Z,5.30
2022-10-26T14:10:02.525Z,2.53
2022-10-26T14:12:29.186Z,3.38
2022-10-26T14:15:02.369Z,6.75
2022-10-26T14:17:28.943Z,5.80
2022-10-26T14:19:55.507Z,3.45
2022-10-26T14:22:23.848Z,5.15
2022-10-26T14:27:37.901Z,3.13
2022-10-26T14:30:29.431Z,6.82
2022-10-26T14:32:56.449Z,5.07
2022-10-26T14:35:36.021Z,5.22
2022-10-26T14:38:03.853Z,2.80
2022-10-26T14:40:31.907Z,6.50
2022-10-26T14:42:59.344Z,5.57
2022-10-26T14:45:48.149Z,6.63
2022-10-26T14:48:30.621Z,3.45
2022-10-26T14:51:00.625Z,4.55
2022-10-26T14:53:36.097Z,4.95
2022-10-26T14:56:04.043Z,2.70
2022-10-26T14:58:31.298Z,2.85
2022-10-26T15:01:22.645Z,2.53
2022-10-26T15:03:54.744Z,4.82
2022-10-26T15:06:31.152Z,7.17
2022-10-26T15:08:59.812Z,3.90
2022-10-26T15:11:30.269Z,6.53
2022-10-26T15:13:56.836Z,4.75
2022-10-26T15:16:24.974Z,10.07
2022-10-26T15:18:54.692Z,7.85
2022-10-26T15:21:40.159Z,3.55
2022-10-26T15:24:39.017Z,3.80
2022-10-26T15:27:13.159Z,8.50
2022-10-26T15:29:47.194Z,6.30
2022-10-26T15:32:31.279Z,6.25
2022-10-26T15:35:19.102Z,6.78
2022-10-26T15:37:49.249Z,5.15
2022-10-26T15:40:16.530Z,6.38
2022-10-26T15:42:45.359Z,5.97
2022-10-26T15:45:30.093Z,5.55
2022-10-26T15:47:57.991Z,4.68
2022-10-26T15:50:26.840Z,5.05
2022-10-26T15:53:01.755Z,5.63
2022-10-26T15:55:29.178Z,6.53
2022-10-26T15:57:55.737Z,7.82
2022-10-26T16:00:22.390Z,10.02
2022-10-26T16:02:48.973Z,5.65
2022-10-26T16:05:16.364Z,8.00
2022-10-26T16:07:44.564Z,7.18
2022-10-26T16:10:25.009Z,4.53
2022-10-26T16:12:51.992Z,6.90
2022-10-26T16:15:23.644Z,8.02
2022-10-26T16:17:50.872Z,6.70
2022-10-26T16:20:23.475Z,7.22
2022-10-26T16:22:51.533Z,6.10
2022-10-26T16:25:21.497Z,6.80
2022-10-26T16:27:49.510Z,6.30
2022-10-26T16:30:16.595Z,8.40
2022-10-26T16:32:43.260Z,6.18
2022-10-26T16:35:10.972Z,4.28
2022-10-26T16:37:37.583Z,7.03
2022-10-26T16:40:05.305Z,4.28
2022-10-26T16:42:32.086Z,7.55
2022-10-26T16:45:02.562Z,6.22
2022-10-26T16:47:30.823Z,8.30
2022-10-26T16:49:57.421Z,5.15
2022-10-26T16:52:24.128Z,9.55
2022-10-26T16:54:50.712Z,9.30
2022-10-26T16:57:17.335Z,7.38
2022-10-26T16:59:43.918Z,10.15
2022-10-26T17:02:13.620Z,6.45
2022-10-26T17:04:40.254Z,9.25
2022-10-26T17:07:06.851Z,6.22
2022-10-26T17:09:33.453Z,7.20
2022-10-26T17:12:02.097Z,9.73
2022-10-26T17:14:28.882Z,8.07
2022-10-26T17:16:55.436Z,10.68
2022-10-26T17:19:22.047Z,10.52
2022-10-26T17:21:48.631Z,7.63
2022-10-26T17:24:15.185Z,7.40
2022-10-26T17:26:42.201Z,5.80
2022-10-26T17:31:41.085Z,8.00
2022-10-26T17:34:07.661Z,9.52
2022-10-26T17:36:34.354Z,6.05
2022-10-26T17:39:01.016Z,12.20
2022-10-26T17:41:28.748Z,10.05
2022-10-26T17:43:55.290Z,10.10
2022-10-26T17:46:24.497Z,7.85
2022-10-26T17:48:58.312Z,7.28
2022-10-26T17:51:26.013Z,12.68
2022-10-26T17:53:52.736Z,9.85
2022-10-26T17:56:21.992Z,10.77
2022-10-26T17:58:53.144Z,11.55
2022-10-26T18:01:19.834Z,11.00
2022-10-26T18:03:46.627Z,7.90
2022-10-26T18:06:13.232Z,8.63
2022-10-26T18:08:40.108Z,12.02
2022-10-26T18:11:07.709Z,15.65
2022-10-26T18:13:34.318Z,28.77
2022-10-26T18:16:12.332Z,32.78
2022-10-26T18:18:39.766Z,24.05
2022-10-26T18:21:08.833Z,21.73
2022-10-26T18:23:35.881Z,17.00
2022-10-26T18:26:13.077Z,13.32
2022-10-26T18:28:40.842Z,9.60
2022-10-26T18:31:09.531Z,9.52
2022-10-26T18:33:36.268Z,5.72
2022-10-26T18:36:07.547Z,8.35
2022-10-26T18:38:34.312Z,9.15
2022-10-26T18:41:01.026Z,9.70
2022-10-26T18:43:28.435Z,7.03
2022-10-26T18:46:08.270Z,13.15
2022-10-26T18:48:35.112Z,12.23
2022-10-26T18:51:09.296Z,16.13
2022-10-26T18:53:37.034Z,11.48
2022-10-26T18:56:05.751Z,9.40
2022-10-26T18:58:33.578Z,8.30
2022-10-26T19:01:10.426Z,9.38
2022-10-26T19:03:37.626Z,7.78
2022-10-26T19:06:21.377Z,11.23
2022-10-26T19:08:48.287Z,10.05
2022-10-26T19:11:16.587Z,7.05
2022-10-26T19:13:43.244Z,9.35
2022-10-26T19:16:40.310Z,10.73
2022-10-26T19:19:05.915Z,10.63
2022-10-26T19:21:32.897Z,8.85
2022-10-26T19:24:00.293Z,9.73
2022-10-26T19:26:36.049Z,11.82
2022-10-26T19:29:06.134Z,10.85
2022-10-26T19:31:33.698Z,14.02
2022-10-26T19:34:00.731Z,14.73
2022-10-26T19:36:28.037Z,8.40
2022-10-26T19:38:55.312Z,7.43
2022-10-26T19:41:26.922Z,6.75
2022-10-26T19:43:54.587Z,10.73
2022-10-26T19:46:23.805Z,10.07
2022-10-26T19:48:52.477Z,10.43
2022-10-26T19:51:19.283Z,9.23
2022-10-26T19:53:45.877Z,8.60
2022-10-26T19:56:13.688Z,12.98
2022-10-26T19:58:41.411Z,14.27
2022-10-26T20:01:08.556Z,14.98
2022-10-26T20:03:35.294Z,12.30
2022-10-26T20:06:03.296Z,16.30
2022-10-26T20:08:29.905Z,10.15
2022-10-26T20:10:57.431Z,12.30
2022-10-26T20:13:24.212Z,12.45
2022-10-26T20:15:51.201Z,9.18
2022-10-26T20:18:18.545Z,13.10
2022-10-26T20:20:45.408Z,11.85
2022-10-26T20:23:12.210Z,11.45
2022-10-26T20:25:40.257Z,13.85
2022-10-26T20:28:06.977Z,14.73
2022-10-26T20:30:35.559Z,10.18
2022-10-26T20:33:02.144Z,9.02
2022-10-26T20:35:28.782Z,12.07
2022-10-26T20:37:56.331Z,12.90
2022-10-26T20:40:24.055Z,11.32
2022-10-26T20:42:52.673Z,12.73
2022-10-26T20:45:24.770Z,13.25
2022-10-26T20:47:51.963Z,8.82
2022-10-26T20:50:19.577Z,9.77
2022-10-26T20:52:55.152Z,14.50
2022-10-26T20:55:35.132Z,11.52
2022-10-26T20:58:10.032Z,11.23
2022-10-26T21:00:41.190Z,12.40
2022-10-26T21:03:08.874Z,10.35
2022-10-26T21:05:35.544Z,12.63
2022-10-26T21:08:02.195Z,9.27
2022-10-26T21:10:29.034Z,14.43
2022-10-26T21:12:55.576Z,13.13
2022-10-26T21:15:22.178Z,12.07
2022-10-26T21:17:49.122Z,11.18
2022-10-26T21:20:15.932Z,14.00
2022-10-26T21:22:42.509Z,10.32
2022-10-26T21:25:09.236Z,10.73
2022-10-26T21:27:35.809Z,7.47
2022-10-26T21:30:02.353Z,12.73
2022-10-26T21:32:28.924Z,9.20
2022-10-26T21:34:55.653Z,9.68
2022-10-26T21:37:25.380Z,12.20
2022-10-26T21:39:52.398Z,14.77
2022-10-26T21:42:19.264Z,10.77
2022-10-26T21:44:45.984Z,11.55
2022-10-26T21:47:12.908Z,13.52
2022-10-26T21:52:07.328Z,16.00
2022-10-26T21:54:33.890Z,16.40
2022-10-26T21:57:00.483Z,10.85
2022-10-26T21:59:27.032Z,12.10
2022-10-26T22:01:53.648Z,8.48
2022-10-26T22:04:20.295Z,10.30
2022-10-26T22:06:46.860Z,10.43
2022-10-26T22:09:13.415Z,11.82
2022-10-26T22:11:39.973Z,13.80
2022-10-26T22:14:06.552Z,13.70
2022-10-26T22:16:33.167Z,13.80
2022-10-26T22:19:03.788Z,13.05
2022-10-26T22:21:33.560Z,11.35
2022-10-26T22:24:00.117Z,8.88
2022-10-26T22:26:27.012Z,13.63
2022-10-26T22:28:55.540Z,14.40
2022-10-26T22:31:25.094Z,14.85
2022-10-26T22:33:55.921Z,12.73
2022-10-26T22:36:22.883Z,9.82
2022-10-26T22:38:50.327Z,16.27
2022-10-26T22:41:17.616Z,11.93
2022-10-26T22:43:44.224Z,9.02
2022-10-26T22:46:12.882Z,18.80
2022-10-26T22:48:41.176Z,14.23
2022-10-26T22:51:12.657Z,10.02
2022-10-26T22:53:39.434Z,8.93
2022-10-26T22:56:07.360Z,10.40
2022-10-26T22:58:35.118Z,13.70
2022-10-26T23:01:06.405Z,13.52
2022-10-26T23:03:33.433Z,13.88
2022-10-26T23:06:00.259Z,12.95
2022-10-26T23:08:27.018Z,9.95
2022-10-26T23:10:53.635Z,11.48
2022-10-26T23:13:20.200Z,11.77
2022-10-26T23:15:46.831Z,16.08
2022-10-26T23:18:13.379Z,16.83
2022-10-26T23:20:39.973Z,13.05
2022-10-26T23:23:06.525Z,22.83
2022-10-26T23:25:33.103Z,15.10
2022-10-26T23:27:59.694Z,16.58
2022-10-26T23:30:26.312Z,16.25
2022-10-26T23:32:54.676Z,14.60
2022-10-26T23:35:21.311Z,14.82
2022-10-26T23:37:47.865Z,14.50
2022-10-26T23:40:14.449Z,17.48
2022-10-26T23:42:41.060Z,16.80
2022-10-26T23:45:07.835Z,18.55
2022-10-26T23:47:34.414Z,17.73
2022-10-26T23:50:01.026Z,17.40
2022-10-26T23:52:27.568Z,13.27
2022-10-26T23:54:54.160Z,17.30
2022-10-26T23:57:21.202Z,16.85
2022-10-26T23:59:47.767Z,13.20
